sensor_id;sensor_type;location;lat;lon;timestamp;P1;durP1;ratioP1;P2;durP2;ratioP2
74158;SDS011;62511;47.970;11.774;2024-02-16T00:00:17;5.35;;;2.60;;
74158;SDS011;62511;47.970;11.774;2024-02-16T00:02:44;7.63;;;4.07;;
74158;SDS011;62511;47.970;11.774;2024-02-16T00:05:11;3.65;;;2.78;;
74158;SDS011;62511;47.970;11.774;2024-02-16T00:07:38;6.97;;;3.30;;
74158;SDS011;62511;47.970;11.774;2024-02-16T00:10:05;5.10;;;2.35;;
74158;SDS011;62511;47.970;11.774;2024-02-16T00:12:32;5.38;;;2.42;;
74158;SDS011;62511;47.970;11.774;2024-02-16T00:14:58;4.70;;;2.53;;
74158;SDS011;62511;47.970;11.774;2024-02-16T00:17:25;6.35;;;3.00;;
74158;SDS011;62511;47.970;11.774;2024-02-16T00:19:54;6.38;;;2.67;;
74158;SDS011;62511;47.970;11.774;2024-02-16T00:22:20;6.28;;;2.70;;
74158;SDS011;62511;47.970;11.774;2024-02-16T00:24:47;5.82;;;3.00;;
74158;SDS011;62511;47.970;11.774;2024-02-16T00:27:13;3.78;;;2.13;;
74158;SDS011;62511;47.970;11.774;2024-02-16T00:29:39;3.40;;;2.30;;
74158;SDS011;62511;47.970;11.774;2024-02-16T00:32:06;3.13;;;2.08;;
74158;SDS011;62511;47.970;11.774;2024-02-16T00:34:34;4.70;;;2.17;;
74158;SDS011;62511;47.970;11.774;2024-02-16T00:37:01;4.63;;;2.08;;
74158;SDS011;62511;47.970;11.774;2024-02-16T00:39:29;2.70;;;1.95;;
74158;SDS011;62511;47.970;11.774;2024-02-16T00:41:55;2.97;;;1.88;;
74158;SDS011;62511;47.970;11.774;2024-02-16T00:44:21;4.53;;;2.20;;
74158;SDS011;62511;47.970;11.774;2024-02-16T00:46:47;3.63;;;2.03;;
74158;SDS011;62511;47.970;11.774;2024-02-16T00:49:14;5.85;;;2.20;;
74158;SDS011;62511;47.970;11.774;2024-02-16T00:51:40;3.67;;;2.10;;
74158;SDS011;62511;47.970;11.774;2024-02-16T00:54:06;4.10;;;2.45;;
74158;SDS011;62511;47.970;11.774;2024-02-16T00:56:33;4.85;;;2.00;;
74158;SDS011;62511;47.970;11.774;2024-02-16T00:58:59;3.03;;;2.30;;
74158;SDS011;62511;47.970;11.774;2024-02-16T01:01:26;3.13;;;2.20;;
74158;SDS011;62511;47.970;11.774;2024-02-16T01:03:52;4.65;;;2.00;;
74158;SDS011;62511;47.970;11.774;2024-02-16T01:06:19;5.50;;;2.45;;
74158;SDS011;62511;47.970;11.774;2024-02-16T01:08:45;4.28;;;1.85;;
74158;SDS011;62511;47.970;11.774;2024-02-16T01:11:11;4.38;;;2.55;;
74158;SDS011;62511;47.970;11.774;2024-02-16T01:13:41;3.92;;;1.80;;
74158;SDS011;62511;47.970;11.774;2024-02-16T01:16:08;4.00;;;2.00;;
74158;SDS011;62511;47.970;11.774;2024-02-16T01:18:35;2.70;;;2.10;;
74158;SDS011;62511;47.970;11.774;2024-02-16T01:21:01;6.20;;;2.55;;
74158;SDS011;62511;47.970;11.774;2024-02-16T01:23:29;4.18;;;2.42;;
74158;SDS011;62511;47.970;11.774;2024-02-16T01:25:55;3.58;;;2.42;;
74158;SDS011;62511;47.970;11.774;2024-02-16T01:28:21;4.13;;;2.42;;
74158;SDS011;62511;47.970;11.774;2024-02-16T01:30:48;3.03;;;1.55;;
74158;SDS011;62511;47.970;11.774;2024-02-16T01:33:14;3.10;;;2.03;;
74158;SDS011;62511;47.970;11.774;2024-02-16T01:35:40;3.25;;;2.00;;
74158;SDS011;62511;47.970;11.774;2024-02-16T01:38:06;2.75;;;1.85;;
74158;SDS011;62511;47.970;11.774;2024-02-16T01:40:33;4.78;;;2.08;;
74158;SDS011;62511;47.970;11.774;2024-02-16T01:42:59;3.33;;;1.67;;
74158;SDS011;62511;47.970;11.774;2024-02-16T01:45:25;3.92;;;2.55;;
74158;SDS011;62511;47.970;11.774;2024-02-16T01:47:52;2.80;;;2.00;;
74158;SDS011;62511;47.970;11.774;2024-02-16T01:50:19;2.73;;;1.90;;
74158;SDS011;62511;47.970;11.774;2024-02-16T01:52:46;9.70;;;2.10;;
74158;SDS011;62511;47.970;11.774;2024-02-16T01:55:12;3.95;;;2.35;;
74158;SDS011;62511;47.970;11.774;2024-02-16T01:57:40;3.47;;;1.75;;
74158;SDS011;62511;47.970;11.774;2024-02-16T02:00:08;2.75;;;1.83;;
74158;SDS011;62511;47.970;11.774;2024-02-16T02:02:35;2.83;;;1.63;;
74158;SDS011;62511;47.970;11.774;2024-02-16T02:05:01;3.92;;;1.42;;
74158;SDS011;62511;47.970;11.774;2024-02-16T02:07:27;3.00;;;1.65;;
74158;SDS011;62511;47.970;11.774;2024-02-16T02:09:54;3.75;;;1.77;;
74158;SDS011;62511;47.970;11.774;2024-02-16T02:12:20;3.55;;;1.83;;
74158;SDS011;62511;47.970;11.774;2024-02-16T02:14:50;2.70;;;1.67;;
74158;SDS011;62511;47.970;11.774;2024-02-16T02:17:16;3.70;;;1.60;;
74158;SDS011;62511;47.970;11.774;2024-02-16T02:19:44;3.65;;;1.88;;
74158;SDS011;62511;47.970;11.774;2024-02-16T02:22:14;2.58;;;1.52;;
74158;SDS011;62511;47.970;11.774;2024-02-16T02:24:41;3.13;;;1.83;;
74158;SDS011;62511;47.970;11.774;2024-02-16T02:27:07;2.70;;;1.95;;
74158;SDS011;62511;47.970;11.774;2024-02-16T02:29:34;3.70;;;1.88;;
74158;SDS011;62511;47.970;11.774;2024-02-16T02:32:00;2.05;;;1.77;;
74158;SDS011;62511;47.970;11.774;2024-02-16T02:34:26;3.20;;;2.17;;
74158;SDS011;62511;47.970;11.774;2024-02-16T02:36:52;2.72;;;1.58;;
74158;SDS011;62511;47.970;11.774;2024-02-16T02:39:19;2.38;;;1.42;;
74158;SDS011;62511;47.970;11.774;2024-02-16T02:41:45;2.30;;;1.63;;
74158;SDS011;62511;47.970;11.774;2024-02-16T02:44:12;2.55;;;1.63;;
74158;SDS011;62511;47.970;11.774;2024-02-16T02:46:39;2.72;;;1.55;;
74158;SDS011;62511;47.970;11.774;2024-02-16T02:49:05;3.30;;;1.58;;
74158;SDS011;62511;47.970;11.774;2024-02-16T02:51:31;3.80;;;1.92;;
74158;SDS011;62511;47.970;11.774;2024-02-16T02:53:58;2.85;;;1.85;;
74158;SDS011;62511;47.970;11.774;2024-02-16T02:56:25;2.90;;;1.77;;
74158;SDS011;62511;47.970;11.774;2024-02-16T02:58:51;2.88;;;2.03;;
74158;SDS011;62511;47.970;11.774;2024-02-16T03:01:18;4.20;;;1.80;;
74158;SDS011;62511;47.970;11.774;2024-02-16T03:03:45;3.22;;;1.50;;
74158;SDS011;62511;47.970;11.774;2024-02-16T03:06:12;2.75;;;1.55;;
74158;SDS011;62511;47.970;11.774;2024-02-16T03:08:38;5.50;;;1.90;;
74158;SDS011;62511;47.970;11.774;2024-02-16T03:11:05;3.90;;;1.73;;
74158;SDS011;62511;47.970;11.774;2024-02-16T03:13:33;5.15;;;1.38;;
74158;SDS011;62511;47.970;11.774;2024-02-16T03:15:59;3.83;;;1.70;;
74158;SDS011;62511;47.970;11.774;2024-02-16T03:18:29;3.03;;;1.90;;
74158;SDS011;62511;47.970;11.774;2024-02-16T03:20:55;1.55;;;1.30;;
74158;SDS011;62511;47.970;11.774;2024-02-16T03:23:22;3.70;;;1.88;;
74158;SDS011;62511;47.970;11.774;2024-02-16T03:25:48;3.85;;;1.42;;
74158;SDS011;62511;47.970;11.774;2024-02-16T03:28:15;2.35;;;1.50;;
74158;SDS011;62511;47.970;11.774;2024-02-16T03:30:41;3.55;;;1.90;;
74158;SDS011;62511;47.970;11.774;2024-02-16T03:33:08;4.35;;;1.75;;
74158;SDS011;62511;47.970;11.774;2024-02-16T03:35:35;2.95;;;1.40;;
74158;SDS011;62511;47.970;11.774;2024-02-16T03:38:02;3.63;;;1.48;;
74158;SDS011;62511;47.970;11.774;2024-02-16T03:40:28;2.22;;;1.35;;
74158;SDS011;62511;47.970;11.774;2024-02-16T03:42:54;2.17;;;1.40;;
74158;SDS011;62511;47.970;11.774;2024-02-16T03:45:21;2.65;;;1.50;;
74158;SDS011;62511;47.970;11.774;2024-02-16T03:47:48;2.85;;;1.55;;
74158;SDS011;62511;47.970;11.774;2024-02-16T03:50:15;3.22;;;1.50;;
74158;SDS011;62511;47.970;11.774;2024-02-16T03:52:41;2.20;;;1.73;;
74158;SDS011;62511;47.970;11.774;2024-02-16T03:55:07;2.45;;;1.65;;
74158;SDS011;62511;47.970;11.774;2024-02-16T03:57:34;2.45;;;1.35;;
74158;SDS011;62511;47.970;11.774;2024-02-16T04:00:00;2.72;;;1.42;;
74158;SDS011;62511;47.970;11.774;2024-02-16T04:02:27;2.40;;;1.67;;
74158;SDS011;62511;47.970;11.774;2024-02-16T04:04:54;2.28;;;1.58;;
74158;SDS011;62511;47.970;11.774;2024-02-16T04:07:20;4.10;;;1.52;;
74158;SDS011;62511;47.970;11.774;2024-02-16T04:09:46;2.55;;;1.42;;
74158;SDS011;62511;47.970;11.774;2024-02-16T04:12:13;2.20;;;1.42;;
74158;SDS011;62511;47.970;11.774;2024-02-16T04:14:39;2.90;;;1.10;;
74158;SDS011;62511;47.970;11.774;2024-02-16T04:17:07;3.42;;;1.50;;
74158;SDS011;62511;47.970;11.774;2024-02-16T04:19:33;3.53;;;1.73;;
74158;SDS011;62511;47.970;11.774;2024-02-16T04:22:00;1.88;;;1.17;;
74158;SDS011;62511;47.970;11.774;2024-02-16T04:24:26;1.77;;;1.30;;
74158;SDS011;62511;47.970;11.774;2024-02-16T04:26:52;2.50;;;1.20;;
74158;SDS011;62511;47.970;11.774;2024-02-16T04:29:18;2.28;;;1.50;;
74158;SDS011;62511;47.970;11.774;2024-02-16T04:31:45;2.70;;;1.23;;
74158;SDS011;62511;47.970;11.774;2024-02-16T04:34:11;2.47;;;1.65;;
74158;SDS011;62511;47.970;11.774;2024-02-16T04:36:38;1.75;;;1.60;;
74158;SDS011;62511;47.970;11.774;2024-02-16T04:39:04;3.30;;;1.52;;
74158;SDS011;62511;47.970;11.774;2024-02-16T04:41:30;4.50;;;1.65;;
74158;SDS011;62511;47.970;11.774;2024-02-16T04:43:57;2.35;;;1.35;;
74158;SDS011;62511;47.970;11.774;2024-02-16T04:46:23;3.25;;;1.60;;
74158;SDS011;62511;47.970;11.774;2024-02-16T04:48:49;1.73;;;1.27;;
74158;SDS011;62511;47.970;11.774;2024-02-16T04:51:15;1.73;;;1.27;;
74158;SDS011;62511;47.970;11.774;2024-02-16T04:53:41;1.75;;;1.05;;
74158;SDS011;62511;47.970;11.774;2024-02-16T04:56:08;2.75;;;1.70;;
74158;SDS011;62511;47.970;11.774;2024-02-16T04:58:34;2.20;;;1.30;;
74158;SDS011;62511;47.970;11.774;2024-02-16T05:01:01;1.98;;;1.30;;
74158;SDS011;62511;47.970;11.774;2024-02-16T05:03:27;3.72;;;1.98;;
74158;SDS011;62511;47.970;11.774;2024-02-16T05:05:53;2.88;;;1.40;;
74158;SDS011;62511;47.970;11.774;2024-02-16T05:08:21;3.58;;;1.45;;
74158;SDS011;62511;47.970;11.774;2024-02-16T05:10:48;1.92;;;1.50;;
74158;SDS011;62511;47.970;11.774;2024-02-16T05:13:14;2.83;;;1.23;;
74158;SDS011;62511;47.970;11.774;2024-02-16T05:15:41;1.90;;;1.10;;
74158;SDS011;62511;47.970;11.774;2024-02-16T05:18:07;1.85;;;1.30;;
74158;SDS011;62511;47.970;11.774;2024-02-16T05:20:33;2.30;;;1.60;;
74158;SDS011;62511;47.970;11.774;2024-02-16T05:22:59;3.17;;;1.50;;
74158;SDS011;62511;47.970;11.774;2024-02-16T05:25:25;3.33;;;1.63;;
74158;SDS011;62511;47.970;11.774;2024-02-16T05:27:51;1.85;;;1.25;;
74158;SDS011;62511;47.970;11.774;2024-02-16T05:30:18;2.50;;;1.30;;
74158;SDS011;62511;47.970;11.774;2024-02-16T05:32:44;2.55;;;1.27;;
74158;SDS011;62511;47.970;11.774;2024-02-16T05:35:10;2.05;;;0.95;;
74158;SDS011;62511;47.970;11.774;2024-02-16T05:37:37;1.23;;;1.05;;
74158;SDS011;62511;47.970;11.774;2024-02-16T05:40:08;2.95;;;1.40;;
74158;SDS011;62511;47.970;11.774;2024-02-16T05:42:45;2.25;;;1.60;;
74158;SDS011;62511;47.970;11.774;2024-02-16T05:45:16;2.35;;;1.30;;
74158;SDS011;62511;47.970;11.774;2024-02-16T05:47:42;1.67;;;0.90;;
74158;SDS011;62511;47.970;11.774;2024-02-16T05:50:08;3.42;;;1.40;;
74158;SDS011;62511;47.970;11.774;2024-02-16T05:52:37;1.73;;;1.38;;
74158;SDS011;62511;47.970;11.774;2024-02-16T05:55:04;3.33;;;1.77;;
74158;SDS011;62511;47.970;11.774;2024-02-16T05:57:30;4.07;;;1.52;;
74158;SDS011;62511;47.970;11.774;2024-02-16T05:59:56;1.83;;;1.08;;
74158;SDS011;62511;47.970;11.774;2024-02-16T06:02:23;1.45;;;0.80;;
74158;SDS011;62511;47.970;11.774;2024-02-16T06:04:53;5.38;;;1.33;;
74158;SDS011;62511;47.970;11.774;2024-02-16T06:07:19;2.05;;;1.30;;
74158;SDS011;62511;47.970;11.774;2024-02-16T06:09:46;1.77;;;1.20;;
74158;SDS011;62511;47.970;11.774;2024-02-16T06:12:12;4.57;;;1.00;;
74158;SDS011;62511;47.970;11.774;2024-02-16T06:14:40;2.97;;;1.05;;
74158;SDS011;62511;47.970;11.774;2024-02-16T06:17:07;2.83;;;1.30;;
74158;SDS011;62511;47.970;11.774;2024-02-16T06:19:34;4.38;;;1.20;;
74158;SDS011;62511;47.970;11.774;2024-02-16T06:22:00;1.20;;;0.80;;
74158;SDS011;62511;47.970;11.774;2024-02-16T06:24:26;1.77;;;1.02;;
74158;SDS011;62511;47.970;11.774;2024-02-16T06:26:52;2.47;;;1.70;;
74158;SDS011;62511;47.970;11.774;2024-02-16T06:29:20;2.22;;;1.17;;
74158;SDS011;62511;47.970;11.774;2024-02-16T06:31:47;1.42;;;0.80;;
74158;SDS011;62511;47.970;11.774;2024-02-16T06:34:13;1.85;;;1.35;;
74158;SDS011;62511;47.970;11.774;2024-02-16T06:36:40;3.55;;;1.40;;
74158;SDS011;62511;47.970;11.774;2024-02-16T06:39:07;4.43;;;1.80;;
74158;SDS011;62511;47.970;11.774;2024-02-16T06:41:33;3.00;;;2.03;;
74158;SDS011;62511;47.970;11.774;2024-02-16T06:43:59;3.90;;;2.10;;
74158;SDS011;62511;47.970;11.774;2024-02-16T06:46:25;6.28;;;2.35;;
74158;SDS011;62511;47.970;11.774;2024-02-16T06:48:52;5.55;;;2.50;;
74158;SDS011;62511;47.970;11.774;2024-02-16T06:51:22;3.72;;;1.80;;
74158;SDS011;62511;47.970;11.774;2024-02-16T06:53:49;3.38;;;1.70;;
74158;SDS011;62511;47.970;11.774;2024-02-16T06:56:15;2.40;;;1.38;;
74158;SDS011;62511;47.970;11.774;2024-02-16T06:58:41;5.13;;;1.67;;
74158;SDS011;62511;47.970;11.774;2024-02-16T07:01:07;3.72;;;1.40;;
74158;SDS011;62511;47.970;11.774;2024-02-16T07:03:34;3.72;;;1.60;;
74158;SDS011;62511;47.970;11.774;2024-02-16T07:06:04;6.82;;;2.08;;
74158;SDS011;62511;47.970;11.774;2024-02-16T07:08:32;1.42;;;0.90;;
74158;SDS011;62511;47.970;11.774;2024-02-16T07:11:00;6.22;;;1.35;;
74158;SDS011;62511;47.970;11.774;2024-02-16T07:13:28;1.00;;;0.80;;
74158;SDS011;62511;47.970;11.774;2024-02-16T07:15:54;1.67;;;1.00;;
74158;SDS011;62511;47.970;11.774;2024-02-16T07:18:21;4.55;;;1.25;;
74158;SDS011;62511;47.970;11.774;2024-02-16T07:20:47;2.28;;;1.15;;
74158;SDS011;62511;47.970;11.774;2024-02-16T07:23:13;1.55;;;1.02;;
74158;SDS011;62511;47.970;11.774;2024-02-16T07:25:40;1.35;;;1.13;;
74158;SDS011;62511;47.970;11.774;2024-02-16T07:28:07;4.70;;;2.65;;
74158;SDS011;62511;47.970;11.774;2024-02-16T07:30:34;6.57;;;3.95;;
74158;SDS011;62511;47.970;11.774;2024-02-16T07:33:03;7.68;;;3.83;;
74158;SDS011;62511;47.970;11.774;2024-02-16T07:35:29;3.80;;;1.77;;
74158;SDS011;62511;47.970;11.774;2024-02-16T07:37:56;6.07;;;1.75;;
74158;SDS011;62511;47.970;11.774;2024-02-16T07:40:22;1.67;;;1.33;;
74158;SDS011;62511;47.970;11.774;2024-02-16T07:42:48;2.97;;;1.30;;
74158;SDS011;62511;47.970;11.774;2024-02-16T07:45:14;3.35;;;1.70;;
74158;SDS011;62511;47.970;11.774;2024-02-16T07:47:41;2.55;;;1.33;;
74158;SDS011;62511;47.970;11.774;2024-02-16T07:50:07;3.67;;;2.10;;
74158;SDS011;62511;47.970;11.774;2024-02-16T07:52:33;5.13;;;1.90;;
74158;SDS011;62511;47.970;11.774;2024-02-16T07:55:01;9.77;;;4.03;;
74158;SDS011;62511;47.970;11.774;2024-02-16T07:59:53;6.15;;;3.20;;
74158;SDS011;62511;47.970;11.774;2024-02-16T08:02:19;3.72;;;2.08;;
74158;SDS011;62511;47.970;11.774;2024-02-16T08:04:49;2.95;;;1.38;;
74158;SDS011;62511;47.970;11.774;2024-02-16T08:07:15;1.60;;;1.45;;
74158;SDS011;62511;47.970;11.774;2024-02-16T08:09:45;1.73;;;1.55;;
74158;SDS011;62511;47.970;11.774;2024-02-16T08:12:12;3.97;;;1.42;;
74158;SDS011;62511;47.970;11.774;2024-02-16T08:14:41;2.45;;;1.50;;
74158;SDS011;62511;47.970;11.774;2024-02-16T08:17:08;3.25;;;1.85;;
74158;SDS011;62511;47.970;11.774;2024-02-16T08:19:35;2.92;;;1.90;;
74158;SDS011;62511;47.970;11.774;2024-02-16T08:22:02;2.80;;;1.50;;
74158;SDS011;62511;47.970;11.774;2024-02-16T08:24:29;1.55;;;1.00;;
74158;SDS011;62511;47.970;11.774;2024-02-16T08:26:57;1.23;;;0.80;;
74158;SDS011;62511;47.970;11.774;2024-02-16T08:29:24;3.85;;;1.17;;
74158;SDS011;62511;47.970;11.774;2024-02-16T08:31:54;1.92;;;0.75;;
74158;SDS011;62511;47.970;11.774;2024-02-16T08:36:47;3.60;;;1.27;;
74158;SDS011;62511;47.970;11.774;2024-02-16T08:39:14;1.70;;;1.27;;
74158;SDS011;62511;47.970;11.774;2024-02-16T08:41:40;2.05;;;0.77;;
74158;SDS011;62511;47.970;11.774;2024-02-16T08:44:07;2.63;;;1.00;;
74158;SDS011;62511;47.970;11.774;2024-02-16T08:46:35;2.83;;;0.63;;
74158;SDS011;62511;47.970;11.774;2024-02-16T08:49:02;0.82;;;0.40;;
74158;SDS011;62511;47.970;11.774;2024-02-16T08:51:29;0.55;;;0.50;;
74158;SDS011;62511;47.970;11.774;2024-02-16T08:53:55;0.80;;;0.50;;
74158;SDS011;62511;47.970;11.774;2024-02-16T08:56:21;2.25;;;0.60;;
74158;SDS011;62511;47.970;11.774;2024-02-16T08:58:47;0.77;;;0.60;;
74158;SDS011;62511;47.970;11.774;2024-02-16T09:01:14;1.55;;;0.85;;
74158;SDS011;62511;47.970;11.774;2024-02-16T09:03:44;0.95;;;0.60;;
74158;SDS011;62511;47.970;11.774;2024-02-16T09:06:10;1.63;;;0.60;;
74158;SDS011;62511;47.970;11.774;2024-02-16T09:08:37;1.20;;;0.60;;
74158;SDS011;62511;47.970;11.774;2024-02-16T09:11:04;2.20;;;0.70;;
74158;SDS011;62511;47.970;11.774;2024-02-16T09:13:33;0.60;;;0.40;;
74158;SDS011;62511;47.970;11.774;2024-02-16T09:16:00;0.80;;;0.43;;
74158;SDS011;62511;47.970;11.774;2024-02-16T09:18:26;0.60;;;0.47;;
74158;SDS011;62511;47.970;11.774;2024-02-16T09:20:52;1.02;;;0.52;;
74158;SDS011;62511;47.970;11.774;2024-02-16T09:23:18;1.10;;;0.52;;
74158;SDS011;62511;47.970;11.774;2024-02-16T09:25:44;1.40;;;0.60;;
74158;SDS011;62511;47.970;11.774;2024-02-16T09:28:14;1.40;;;0.60;;
74158;SDS011;62511;47.970;11.774;2024-02-16T09:30:40;1.67;;;0.70;;
74158;SDS011;62511;47.970;11.774;2024-02-16T09:33:07;3.60;;;0.80;;
74158;SDS011;62511;47.970;11.774;2024-02-16T09:35:33;1.00;;;0.60;;
74158;SDS011;62511;47.970;11.774;2024-02-16T09:37:59;1.30;;;0.80;;
74158;SDS011;62511;47.970;11.774;2024-02-16T09:40:25;1.20;;;0.55;;
74158;SDS011;62511;47.970;11.774;2024-02-16T09:42:51;1.35;;;0.50;;
74158;SDS011;62511;47.970;11.774;2024-02-16T09:45:17;1.58;;;0.68;;
74158;SDS011;62511;47.970;11.774;2024-02-16T09:47:46;0.93;;;0.70;;
74158;SDS011;62511;47.970;11.774;2024-02-16T09:50:12;1.95;;;0.90;;
74158;SDS011;62511;47.970;11.774;2024-02-16T09:52:39;1.00;;;0.50;;
74158;SDS011;62511;47.970;11.774;2024-02-16T09:55:15;1.75;;;0.70;;
74158;SDS011;62511;47.970;11.774;2024-02-16T09:57:45;1.17;;;0.32;;
74158;SDS011;62511;47.970;11.774;2024-02-16T10:00:12;0.60;;;0.57;;
74158;SDS011;62511;47.970;11.774;2024-02-16T10:02:45;1.05;;;0.60;;
74158;SDS011;62511;47.970;11.774;2024-02-16T10:05:15;0.47;;;0.40;;
74158;SDS011;62511;47.970;11.774;2024-02-16T10:07:42;1.05;;;0.60;;
74158;SDS011;62511;47.970;11.774;2024-02-16T10:10:24;0.85;;;0.45;;
74158;SDS011;62511;47.970;11.774;2024-02-16T10:13:00;0.60;;;0.38;;
74158;SDS011;62511;47.970;11.774;2024-02-16T10:15:27;0.77;;;0.40;;
74158;SDS011;62511;47.970;11.774;2024-02-16T10:18:00;1.00;;;0.50;;
74158;SDS011;62511;47.970;11.774;2024-02-16T10:20:27;0.60;;;0.40;;
74158;SDS011;62511;47.970;11.774;2024-02-16T10:23:03;0.80;;;0.30;;
74158;SDS011;62511;47.970;11.774;2024-02-16T10:25:29;1.58;;;0.50;;
74158;SDS011;62511;47.970;11.774;2024-02-16T10:27:56;1.35;;;0.60;;
74158;SDS011;62511;47.970;11.774;2024-02-16T10:30:28;0.65;;;0.43;;
74158;SDS011;62511;47.970;11.774;2024-02-16T10:32:56;1.30;;;0.70;;
74158;SDS011;62511;47.970;11.774;2024-02-16T10:35:24;1.33;;;0.50;;
74158;SDS011;62511;47.970;11.774;2024-02-16T10:37:51;1.30;;;0.55;;
74158;SDS011;62511;47.970;11.774;2024-02-16T10:40:19;0.93;;;0.50;;
74158;SDS011;62511;47.970;11.774;2024-02-16T10:42:46;1.48;;;0.50;;
74158;SDS011;62511;47.970;11.774;2024-02-16T10:45:15;1.33;;;0.40;;
74158;SDS011;62511;47.970;11.774;2024-02-16T10:47:41;1.42;;;0.52;;
74158;SDS011;62511;47.970;11.774;2024-02-16T10:50:07;0.75;;;0.38;;
74158;SDS011;62511;47.970;11.774;2024-02-16T10:52:34;0.52;;;0.40;;
74158;SDS011;62511;47.970;11.774;2024-02-16T10:55:02;1.38;;;0.57;;
74158;SDS011;62511;47.970;11.774;2024-02-16T10:57:30;0.60;;;0.50;;
74158;SDS011;62511;47.970;11.774;2024-02-16T10:59:58;0.65;;;0.43;;
74158;SDS011;62511;47.970;11.774;2024-02-16T11:02:25;0.70;;;0.40;;
74158;SDS011;62511;47.970;11.774;2024-02-16T11:04:52;0.45;;;0.43;;
74158;SDS011;62511;47.970;11.774;2024-02-16T11:07:19;0.55;;;0.30;;
74158;SDS011;62511;47.970;11.774;2024-02-16T11:09:46;0.90;;;0.50;;
74158;SDS011;62511;47.970;11.774;2024-02-16T11:12:13;1.00;;;0.43;;
74158;SDS011;62511;47.970;11.774;2024-02-16T11:14:44;0.60;;;0.40;;
74158;SDS011;62511;47.970;11.774;2024-02-16T11:19:37;0.68;;;0.40;;
74158;SDS011;62511;47.970;11.774;2024-02-16T11:22:06;1.13;;;0.50;;
74158;SDS011;62511;47.970;11.774;2024-02-16T11:24:37;0.75;;;0.50;;
74158;SDS011;62511;47.970;11.774;2024-02-16T11:27:04;0.77;;;0.40;;
74158;SDS011;62511;47.970;11.774;2024-02-16T11:29:33;0.30;;;0.28;;
74158;SDS011;62511;47.970;11.774;2024-02-16T11:32:00;0.32;;;0.20;;
74158;SDS011;62511;47.970;11.774;2024-02-16T11:34:27;1.42;;;0.30;;
74158;SDS011;62511;47.970;11.774;2024-02-16T11:36:54;1.45;;;0.40;;
74158;SDS011;62511;47.970;11.774;2024-02-16T11:39:21;0.60;;;0.40;;
74158;SDS011;62511;47.970;11.774;2024-02-16T11:41:58;1.45;;;0.45;;
74158;SDS011;62511;47.970;11.774;2024-02-16T11:44:26;0.68;;;0.40;;
74158;SDS011;62511;47.970;11.774;2024-02-16T11:46:53;3.17;;;1.20;;
74158;SDS011;62511;47.970;11.774;2024-02-16T11:49:19;2.47;;;1.40;;
74158;SDS011;62511;47.970;11.774;2024-02-16T11:51:46;1.05;;;0.45;;
74158;SDS011;62511;47.970;11.774;2024-02-16T11:56:44;0.95;;;0.60;;
74158;SDS011;62511;47.970;11.774;2024-02-16T11:59:14;0.75;;;0.50;;
74158;SDS011;62511;47.970;11.774;2024-02-16T12:01:57;1.05;;;0.50;;
74158;SDS011;62511;47.970;11.774;2024-02-16T12:04:24;0.43;;;0.30;;
74158;SDS011;62511;47.970;11.774;2024-02-16T12:07:00;0.73;;;0.60;;
74158;SDS011;62511;47.970;11.774;2024-02-16T12:09:26;0.40;;;0.40;;
74158;SDS011;62511;47.970;11.774;2024-02-16T12:11:53;0.82;;;0.50;;
74158;SDS011;62511;47.970;11.774;2024-02-16T12:14:23;1.48;;;0.77;;
74158;SDS011;62511;47.970;11.774;2024-02-16T12:16:50;1.67;;;0.60;;
74158;SDS011;62511;47.970;11.774;2024-02-16T12:19:18;1.30;;;0.68;;
74158;SDS011;62511;47.970;11.774;2024-02-16T12:21:48;1.08;;;0.63;;
74158;SDS011;62511;47.970;11.774;2024-02-16T12:24:14;0.50;;;0.50;;
74158;SDS011;62511;47.970;11.774;2024-02-16T12:26:40;1.88;;;0.40;;
74158;SDS011;62511;47.970;11.774;2024-02-16T12:29:06;1.65;;;0.60;;
74158;SDS011;62511;47.970;11.774;2024-02-16T12:31:37;1.13;;;0.40;;
74158;SDS011;62511;47.970;11.774;2024-02-16T12:34:03;1.65;;;0.45;;
74158;SDS011;62511;47.970;11.774;2024-02-16T12:36:32;1.08;;;0.63;;
74158;SDS011;62511;47.970;11.774;2024-02-16T12:38:59;0.77;;;0.60;;
74158;SDS011;62511;47.970;11.774;2024-02-16T12:41:25;0.73;;;0.70;;
74158;SDS011;62511;47.970;11.774;2024-02-16T12:43:51;0.90;;;0.65;;
74158;SDS011;62511;47.970;11.774;2024-02-16T12:46:19;0.70;;;0.60;;
74158;SDS011;62511;47.970;11.774;2024-02-16T12:48:45;1.35;;;0.45;;
74158;SDS011;62511;47.970;11.774;2024-02-16T12:51:12;2.22;;;0.50;;
74158;SDS011;62511;47.970;11.774;2024-02-16T12:53:39;0.90;;;0.70;;
74158;SDS011;62511;47.970;11.774;2024-02-16T12:56:08;1.40;;;0.50;;
74158;SDS011;62511;47.970;11.774;2024-02-16T12:58:35;1.52;;;0.45;;
74158;SDS011;62511;47.970;11.774;2024-02-16T13:01:02;1.58;;;0.50;;
74158;SDS011;62511;47.970;11.774;2024-02-16T13:03:34;1.15;;;0.63;;
74158;SDS011;62511;47.970;11.774;2024-02-16T13:06:01;2.42;;;0.65;;
74158;SDS011;62511;47.970;11.774;2024-02-16T13:10:53;1.38;;;0.63;;
74158;SDS011;62511;47.970;11.774;2024-02-16T13:13:19;0.77;;;0.40;;
74158;SDS011;62511;47.970;11.774;2024-02-16T13:15:46;0.68;;;0.50;;
74158;SDS011;62511;47.970;11.774;2024-02-16T13:18:15;0.55;;;0.50;;
74158;SDS011;62511;47.970;11.774;2024-02-16T13:20:44;1.50;;;0.65;;
74158;SDS011;62511;47.970;11.774;2024-02-16T13:23:10;1.08;;;0.50;;
74158;SDS011;62511;47.970;11.774;2024-02-16T13:25:38;2.28;;;0.50;;
74158;SDS011;62511;47.970;11.774;2024-02-16T13:28:04;1.42;;;0.82;;
74158;SDS011;62511;47.970;11.774;2024-02-16T13:30:30;1.13;;;0.52;;
74158;SDS011;62511;47.970;11.774;2024-02-16T13:32:56;1.63;;;0.65;;
74158;SDS011;62511;47.970;11.774;2024-02-16T13:35:23;1.38;;;0.40;;
74158;SDS011;62511;47.970;11.774;2024-02-16T13:37:49;0.90;;;0.60;;
74158;SDS011;62511;47.970;11.774;2024-02-16T13:40:15;2.30;;;0.57;;
74158;SDS011;62511;47.970;11.774;2024-02-16T13:42:43;3.60;;;0.55;;
74158;SDS011;62511;47.970;11.774;2024-02-16T13:45:10;1.63;;;0.65;;
74158;SDS011;62511;47.970;11.774;2024-02-16T13:47:36;0.93;;;0.65;;
74158;SDS011;62511;47.970;11.774;2024-02-16T13:50:07;1.95;;;0.68;;
74158;SDS011;62511;47.970;11.774;2024-02-16T13:52:34;1.33;;;0.50;;
74158;SDS011;62511;47.970;11.774;2024-02-16T13:55:00;0.70;;;0.50;;
74158;SDS011;62511;47.970;11.774;2024-02-16T13:57:27;1.73;;;0.45;;
74158;SDS011;62511;47.970;11.774;2024-02-16T13:59:53;1.33;;;0.50;;
74158;SDS011;62511;47.970;11.774;2024-02-16T14:02:20;1.23;;;0.45;;
74158;SDS011;62511;47.970;11.774;2024-02-16T14:04:46;3.17;;;0.80;;
74158;SDS011;62511;47.970;11.774;2024-02-16T14:07:12;0.85;;;0.65;;
74158;SDS011;62511;47.970;11.774;2024-02-16T14:09:38;0.98;;;0.50;;
74158;SDS011;62511;47.970;11.774;2024-02-16T14:12:04;1.73;;;0.55;;
74158;SDS011;62511;47.970;11.774;2024-02-16T14:14:31;1.48;;;0.60;;
74158;SDS011;62511;47.970;11.774;2024-02-16T14:16:57;1.30;;;0.50;;
74158;SDS011;62511;47.970;11.774;2024-02-16T14:19:23;1.60;;;0.80;;
74158;SDS011;62511;47.970;11.774;2024-02-16T14:21:49;0.77;;;0.50;;
74158;SDS011;62511;47.970;11.774;2024-02-16T14:24:16;1.65;;;0.73;;
74158;SDS011;62511;47.970;11.774;2024-02-16T14:29:08;0.95;;;0.45;;
74158;SDS011;62511;47.970;11.774;2024-02-16T14:31:35;1.08;;;0.68;;
74158;SDS011;62511;47.970;11.774;2024-02-16T14:34:01;1.13;;;0.55;;
74158;SDS011;62511;47.970;11.774;2024-02-16T14:36:28;0.50;;;0.50;;
74158;SDS011;62511;47.970;11.774;2024-02-16T14:38:54;1.45;;;0.50;;
74158;SDS011;62511;47.970;11.774;2024-02-16T14:41:21;0.73;;;0.50;;
74158;SDS011;62511;47.970;11.774;2024-02-16T14:43:49;0.88;;;0.38;;
74158;SDS011;62511;47.970;11.774;2024-02-16T14:46:15;0.68;;;0.50;;